Kasongo Airport


Codes: FZOK/
Name: Kasongo Airport
City: Kasongo
Country: Congo [DRC]
Elevation: 1785 ft.

Photos at Kasongo Airport


   Photos courtesy of SpottingLog. You can add your own sightings and photos by signing up for a free trial today.



No photos found.

Weather at Kasongo Airport


Time (UTC)DescriptionTempratureWindCloud coverageVisibilityPressureHumidity
18-Apr-2024 00:00Light Rain23°C4 mph, S97%10000m1010hPa91%
18-Apr-2024 03:00Light Rain23°C4 mph, SE97%10000m1010hPa93%
18-Apr-2024 06:00Overcast Clouds24°C4 mph, SE97%10000m1011hPa88%
18-Apr-2024 09:00Overcast Clouds30°C7 mph, SE100%10000m1012hPa60%
18-Apr-2024 12:00Overcast Clouds33°C7 mph, SE100%10000m1008hPa51%
18-Apr-2024 15:00Light Rain28°C7 mph, SE87%10000m1008hPa75%
18-Apr-2024 18:00Light Rain24°C4 mph, SE63%10000m1010hPa89%
18-Apr-2024 21:00Overcast Clouds23°C4 mph, S87%10000m1010hPa92%
19-Apr-2024 00:00Overcast Clouds23°C4 mph, SE93%10000m1009hPa91%
19-Apr-2024 03:00Overcast Clouds22°C4 mph, SE99%10000m1010hPa93%
19-Apr-2024 06:00Overcast Clouds25°C4 mph, SE86%10000m1011hPa80%
19-Apr-2024 09:00Scattered Clouds30°C7 mph, SE46%10000m1010hPa57%
19-Apr-2024 12:00Broken Clouds33°C4 mph, SE70%10000m1007hPa48%
19-Apr-2024 15:00Overcast Clouds29°C4 mph, S99%10000m1007hPa70%
19-Apr-2024 18:00Overcast Clouds25°C2 mph, SE88%10000m1008hPa79%
19-Apr-2024 21:00Light Rain24°C2 mph, S100%10000m1009hPa84%
20-Apr-2024 00:00Overcast Clouds23°C4 mph, SE98%10000m1009hPa88%
20-Apr-2024 03:00Overcast Clouds22°C2 mph, SE94%10000m1009hPa91%
20-Apr-2024 06:00Overcast Clouds25°C4 mph, SE97%10000m1011hPa79%
20-Apr-2024 09:00Overcast Clouds30°C4 mph, SE99%10000m1010hPa57%
20-Apr-2024 12:00Overcast Clouds33°C4 mph, S98%10000m1007hPa51%
20-Apr-2024 15:00Light Rain30°C0 mph, E99%10000m1007hPa68%
20-Apr-2024 18:00Light Rain25°C2 mph, N99%10000m1009hPa85%
20-Apr-2024 21:00Overcast Clouds24°C2 mph, NE100%10000m1009hPa89%
21-Apr-2024 00:00Overcast Clouds23°C2 mph, NE99%10000m1009hPa93%
21-Apr-2024 03:00Overcast Clouds22°C2 mph, E88%10000m1009hPa95%
21-Apr-2024 06:00Overcast Clouds25°C2 mph, SE94%10000m1011hPa85%
21-Apr-2024 09:00Overcast Clouds31°C4 mph, SE99%10000m1010hPa59%
21-Apr-2024 12:00Light Rain33°C4 mph, S97%10000m1007hPa49%
21-Apr-2024 15:00Overcast Clouds29°C2 mph, SW100%10000m1006hPa72%
21-Apr-2024 18:00Overcast Clouds26°C2 mph, SE92%10000m1008hPa77%
21-Apr-2024 21:00Light Rain23°C9 mph, N100%6565m1010hPa93%
22-Apr-2024 00:00Light Rain21°C4 mph, N99%10000m1011hPa98%
22-Apr-2024 03:00Light Rain21°C2 mph, N100%10000m1011hPa98%
22-Apr-2024 06:00Light Rain22°C2 mph, NE100%10000m1013hPa94%
22-Apr-2024 09:00Broken Clouds29°C2 mph, N80%10000m1012hPa64%
22-Apr-2024 12:00Broken Clouds32°C2 mph, W56%10000m1008hPa54%
22-Apr-2024 15:00Scattered Clouds30°C2 mph, NE49%10000m1007hPa68%
22-Apr-2024 18:00Light Rain25°C2 mph, SE48%10000m1009hPa82%
22-Apr-2024 21:00Light Rain24°C2 mph, SE19%10000m1009hPa87%